Weather at Singapore Changi Airport

Public forecast

Using degrees Celsius for public forecast. Weather courtesy of forecast.io.

Current aviation weather report (METAR) for Singapore Changi Airport

Retrieved 2021/06/15 06:30 UTC (0 seconds ago):

WSSS 150630Z 15014KT 9999 VCSH FEW015 FEW016CB SCT018TCU 29/24 Q1008 TEMPO FM0650 TL0730 4000 TSRA

Aviation forecast (TAF) for Singapore Changi Airport

Retrieved 2021/06/15 06:09 UTC (14 minutes ago):

TAF WSSS 150500Z 1506/1612 16008KT 9999 FEW015 SCT020 TEMPO 1506/1509 3000 TSRA FEW012CB BKN015